sensor_id;sensor_type;location;lat;lon;timestamp;P1;durP1;ratioP1;P2;durP2;ratioP2
69087;SDS011;56190;43.562;5.036;2022-09-14T00:01:20;1.58;;;1.35;;
69087;SDS011;56190;43.562;5.036;2022-09-14T00:03:45;2.20;;;1.10;;
69087;SDS011;56190;43.562;5.036;2022-09-14T00:06:12;2.35;;;1.48;;
69087;SDS011;56190;43.562;5.036;2022-09-14T00:08:37;2.42;;;1.20;;
69087;SDS011;56190;43.562;5.036;2022-09-14T00:11:04;4.20;;;1.20;;
69087;SDS011;56190;43.562;5.036;2022-09-14T00:13:30;2.25;;;1.25;;
69087;SDS011;56190;43.562;5.036;2022-09-14T00:15:55;2.15;;;1.23;;
69087;SDS011;56190;43.562;5.036;2022-09-14T00:18:21;4.95;;;1.55;;
69087;SDS011;56190;43.562;5.036;2022-09-14T00:20:46;2.90;;;1.20;;
69087;SDS011;56190;43.562;5.036;2022-09-14T00:23:11;2.50;;;1.17;;
69087;SDS011;56190;43.562;5.036;2022-09-14T00:25:36;2.63;;;1.52;;
69087;SDS011;56190;43.562;5.036;2022-09-14T00:28:02;3.75;;;1.20;;
69087;SDS011;56190;43.562;5.036;2022-09-14T00:30:27;3.13;;;1.35;;
69087;SDS011;56190;43.562;5.036;2022-09-14T00:32:53;2.15;;;1.65;;
69087;SDS011;56190;43.562;5.036;2022-09-14T00:35:18;2.22;;;1.38;;
69087;SDS011;56190;43.562;5.036;2022-09-14T00:37:43;4.25;;;1.58;;
69087;SDS011;56190;43.562;5.036;2022-09-14T00:40:09;2.25;;;1.30;;
69087;SDS011;56190;43.562;5.036;2022-09-14T00:42:35;1.98;;;1.30;;
69087;SDS011;56190;43.562;5.036;2022-09-14T00:45:02;2.40;;;1.23;;
69087;SDS011;56190;43.562;5.036;2022-09-14T00:47:29;1.38;;;1.05;;
69087;SDS011;56190;43.562;5.036;2022-09-14T00:49:55;2.00;;;1.27;;
69087;SDS011;56190;43.562;5.036;2022-09-14T00:52:23;2.75;;;1.55;;
69087;SDS011;56190;43.562;5.036;2022-09-14T00:54:56;3.42;;;1.40;;
69087;SDS011;56190;43.562;5.036;2022-09-14T00:57:23;2.95;;;1.27;;
69087;SDS011;56190;43.562;5.036;2022-09-14T00:59:49;3.25;;;1.30;;
69087;SDS011;56190;43.562;5.036;2022-09-14T01:02:15;4.25;;;1.48;;
69087;SDS011;56190;43.562;5.036;2022-09-14T01:04:41;2.20;;;1.30;;
69087;SDS011;56190;43.562;5.036;2022-09-14T01:14:50;3.75;;;1.45;;
69087;SDS011;56190;43.562;5.036;2022-09-14T01:17:27;2.97;;;1.60;;
69087;SDS011;56190;43.562;5.036;2022-09-14T01:27:52;4.38;;;1.60;;
69087;SDS011;56190;43.562;5.036;2022-09-14T01:30:20;2.17;;;1.10;;
69087;SDS011;56190;43.562;5.036;2022-09-14T01:35:28;3.15;;;1.38;;
69087;SDS011;56190;43.562;5.036;2022-09-14T01:40:28;1.88;;;1.20;;
69087;SDS011;56190;43.562;5.036;2022-09-14T01:43:03;2.15;;;1.40;;
69087;SDS011;56190;43.562;5.036;2022-09-14T01:45:29;1.92;;;1.30;;
69087;SDS011;56190;43.562;5.036;2022-09-14T01:47:57;3.85;;;1.40;;
69087;SDS011;56190;43.562;5.036;2022-09-14T01:50:25;3.78;;;1.20;;
69087;SDS011;56190;43.562;5.036;2022-09-14T01:52:57;3.03;;;1.33;;
69087;SDS011;56190;43.562;5.036;2022-09-14T01:55:25;2.38;;;1.50;;
69087;SDS011;56190;43.562;5.036;2022-09-14T01:58:01;2.25;;;1.33;;
69087;SDS011;56190;43.562;5.036;2022-09-14T02:00:28;3.28;;;1.30;;
69087;SDS011;56190;43.562;5.036;2022-09-14T02:02:59;2.08;;;1.40;;
69087;SDS011;56190;43.562;5.036;2022-09-14T02:05:31;1.70;;;1.52;;
69087;SDS011;56190;43.562;5.036;2022-09-14T02:07:58;2.45;;;1.55;;
69087;SDS011;56190;43.562;5.036;2022-09-14T02:10:24;2.35;;;1.40;;
69087;SDS011;56190;43.562;5.036;2022-09-14T02:12:50;2.17;;;1.40;;
69087;SDS011;56190;43.562;5.036;2022-09-14T02:15:16;1.77;;;1.30;;
69087;SDS011;56190;43.562;5.036;2022-09-14T02:17:41;2.85;;;1.60;;
69087;SDS011;56190;43.562;5.036;2022-09-14T02:20:08;2.22;;;1.38;;
69087;SDS011;56190;43.562;5.036;2022-09-14T02:22:35;2.30;;;1.52;;
69087;SDS011;56190;43.562;5.036;2022-09-14T02:25:00;2.60;;;1.40;;
69087;SDS011;56190;43.562;5.036;2022-09-14T02:27:26;1.83;;;1.30;;
69087;SDS011;56190;43.562;5.036;2022-09-14T02:29:51;4.38;;;1.70;;
69087;SDS011;56190;43.562;5.036;2022-09-14T02:40:12;1.70;;;1.50;;
69087;SDS011;56190;43.562;5.036;2022-09-14T02:42:46;2.13;;;1.50;;
69087;SDS011;56190;43.562;5.036;2022-09-14T02:55:47;2.53;;;1.35;;
69087;SDS011;56190;43.562;5.036;2022-09-14T02:58:14;3.78;;;2.00;;
69087;SDS011;56190;43.562;5.036;2022-09-14T03:00:46;3.08;;;1.65;;
69087;SDS011;56190;43.562;5.036;2022-09-14T03:05:37;4.35;;;1.60;;
69087;SDS011;56190;43.562;5.036;2022-09-14T03:08:02;3.78;;;1.60;;
69087;SDS011;56190;43.562;5.036;2022-09-14T03:10:28;2.55;;;1.48;;
69087;SDS011;56190;43.562;5.036;2022-09-14T03:12:53;2.78;;;1.67;;
69087;SDS011;56190;43.562;5.036;2022-09-14T03:15:19;3.88;;;1.58;;
69087;SDS011;56190;43.562;5.036;2022-09-14T03:17:45;1.67;;;1.23;;
69087;SDS011;56190;43.562;5.036;2022-09-14T03:20:10;1.88;;;1.63;;
69087;SDS011;56190;43.562;5.036;2022-09-14T03:22:35;2.83;;;1.40;;
69087;SDS011;56190;43.562;5.036;2022-09-14T03:25:00;2.38;;;1.33;;
69087;SDS011;56190;43.562;5.036;2022-09-14T03:27:26;1.50;;;1.40;;
69087;SDS011;56190;43.562;5.036;2022-09-14T03:29:51;2.20;;;1.48;;
69087;SDS011;56190;43.562;5.036;2022-09-14T03:32:16;2.60;;;1.30;;
69087;SDS011;56190;43.562;5.036;2022-09-14T03:34:41;5.40;;;1.63;;
69087;SDS011;56190;43.562;5.036;2022-09-14T03:37:07;5.13;;;1.65;;
69087;SDS011;56190;43.562;5.036;2022-09-14T03:39:32;1.85;;;1.40;;
69087;SDS011;56190;43.562;5.036;2022-09-14T03:41:57;3.20;;;1.40;;
69087;SDS011;56190;43.562;5.036;2022-09-14T03:44:23;4.38;;;1.70;;
69087;SDS011;56190;43.562;5.036;2022-09-14T03:46:48;3.58;;;1.75;;
69087;SDS011;56190;43.562;5.036;2022-09-14T03:49:13;3.25;;;1.50;;
69087;SDS011;56190;43.562;5.036;2022-09-14T03:51:38;1.48;;;1.38;;
69087;SDS011;56190;43.562;5.036;2022-09-14T03:54:04;3.53;;;1.70;;
69087;SDS011;56190;43.562;5.036;2022-09-14T03:56:29;1.95;;;1.60;;
69087;SDS011;56190;43.562;5.036;2022-09-14T03:58:55;5.90;;;1.90;;
69087;SDS011;56190;43.562;5.036;2022-09-14T04:01:20;3.60;;;1.67;;
69087;SDS011;56190;43.562;5.036;2022-09-14T04:03:46;2.97;;;2.05;;
69087;SDS011;56190;43.562;5.036;2022-09-14T04:06:12;4.20;;;1.67;;
69087;SDS011;56190;43.562;5.036;2022-09-14T04:08:38;2.63;;;1.63;;
69087;SDS011;56190;43.562;5.036;2022-09-14T04:13:35;2.83;;;1.88;;
69087;SDS011;56190;43.562;5.036;2022-09-14T04:16:01;2.55;;;1.80;;
69087;SDS011;56190;43.562;5.036;2022-09-14T04:18:26;2.60;;;1.75;;
69087;SDS011;56190;43.562;5.036;2022-09-14T04:20:55;2.90;;;1.70;;
69087;SDS011;56190;43.562;5.036;2022-09-14T04:23:21;2.92;;;1.70;;
69087;SDS011;56190;43.562;5.036;2022-09-14T04:25:47;5.10;;;2.20;;
69087;SDS011;56190;43.562;5.036;2022-09-14T04:28:12;4.20;;;2.17;;
69087;SDS011;56190;43.562;5.036;2022-09-14T04:30:37;8.57;;;2.33;;
69087;SDS011;56190;43.562;5.036;2022-09-14T04:33:02;5.70;;;2.65;;
69087;SDS011;56190;43.562;5.036;2022-09-14T04:35:28;4.63;;;2.47;;
69087;SDS011;56190;43.562;5.036;2022-09-14T04:37:53;5.40;;;2.05;;
69087;SDS011;56190;43.562;5.036;2022-09-14T04:40:19;4.65;;;2.10;;
69087;SDS011;56190;43.562;5.036;2022-09-14T04:42:45;5.20;;;2.60;;
69087;SDS011;56190;43.562;5.036;2022-09-14T04:45:11;3.28;;;1.83;;
69087;SDS011;56190;43.562;5.036;2022-09-14T04:47:37;5.40;;;1.60;;
69087;SDS011;56190;43.562;5.036;2022-09-14T04:50:02;5.35;;;2.58;;
69087;SDS011;56190;43.562;5.036;2022-09-14T04:52:27;4.25;;;1.95;;
69087;SDS011;56190;43.562;5.036;2022-09-14T04:54:53;3.17;;;1.70;;
69087;SDS011;56190;43.562;5.036;2022-09-14T04:57:18;3.92;;;1.80;;
69087;SDS011;56190;43.562;5.036;2022-09-14T04:59:43;3.45;;;1.83;;
69087;SDS011;56190;43.562;5.036;2022-09-14T05:02:08;3.00;;;1.90;;
69087;SDS011;56190;43.562;5.036;2022-09-14T05:04:33;2.20;;;1.65;;
69087;SDS011;56190;43.562;5.036;2022-09-14T05:06:59;4.85;;;2.38;;
69087;SDS011;56190;43.562;5.036;2022-09-14T05:09:24;2.60;;;2.13;;
69087;SDS011;56190;43.562;5.036;2022-09-14T05:11:49;7.45;;;2.35;;
69087;SDS011;56190;43.562;5.036;2022-09-14T05:14:15;3.10;;;2.22;;
69087;SDS011;56190;43.562;5.036;2022-09-14T05:16:41;4.07;;;2.00;;
69087;SDS011;56190;43.562;5.036;2022-09-14T05:19:09;3.20;;;2.10;;
69087;SDS011;56190;43.562;5.036;2022-09-14T05:21:35;6.03;;;2.40;;
69087;SDS011;56190;43.562;5.036;2022-09-14T05:24:05;4.95;;;2.08;;
69087;SDS011;56190;43.562;5.036;2022-09-14T05:35:46;4.00;;;2.08;;
69087;SDS011;56190;43.562;5.036;2022-09-14T05:38:11;4.18;;;2.10;;
69087;SDS011;56190;43.562;5.036;2022-09-14T05:40:37;4.63;;;2.05;;
69087;SDS011;56190;43.562;5.036;2022-09-14T05:43:02;4.45;;;1.80;;
69087;SDS011;56190;43.562;5.036;2022-09-14T05:45:27;4.10;;;1.92;;
69087;SDS011;56190;43.562;5.036;2022-09-14T05:47:52;3.40;;;1.83;;
69087;SDS011;56190;43.562;5.036;2022-09-14T05:50:18;4.97;;;2.35;;
69087;SDS011;56190;43.562;5.036;2022-09-14T05:52:43;5.50;;;2.50;;
69087;SDS011;56190;43.562;5.036;2022-09-14T05:55:08;4.00;;;2.20;;
69087;SDS011;56190;43.562;5.036;2022-09-14T05:57:33;5.15;;;2.40;;
69087;SDS011;56190;43.562;5.036;2022-09-14T05:59:59;3.50;;;2.38;;
69087;SDS011;56190;43.562;5.036;2022-09-14T06:02:24;3.25;;;2.40;;
69087;SDS011;56190;43.562;5.036;2022-09-14T06:04:49;4.75;;;2.38;;
69087;SDS011;56190;43.562;5.036;2022-09-14T06:07:15;4.28;;;2.20;;
69087;SDS011;56190;43.562;5.036;2022-09-14T06:09:40;5.63;;;2.30;;
69087;SDS011;56190;43.562;5.036;2022-09-14T06:12:06;4.90;;;2.53;;
69087;SDS011;56190;43.562;5.036;2022-09-14T06:14:31;7.72;;;2.72;;
69087;SDS011;56190;43.562;5.036;2022-09-14T06:16:57;5.45;;;2.80;;
69087;SDS011;56190;43.562;5.036;2022-09-14T06:19:23;3.95;;;2.60;;
69087;SDS011;56190;43.562;5.036;2022-09-14T06:21:48;5.57;;;2.42;;
69087;SDS011;56190;43.562;5.036;2022-09-14T06:24:14;5.00;;;2.45;;
69087;SDS011;56190;43.562;5.036;2022-09-14T06:26:40;3.22;;;2.17;;
69087;SDS011;56190;43.562;5.036;2022-09-14T06:29:06;4.30;;;2.47;;
69087;SDS011;56190;43.562;5.036;2022-09-14T06:31:32;4.70;;;2.10;;
69087;SDS011;56190;43.562;5.036;2022-09-14T06:33:58;3.55;;;2.20;;
69087;SDS011;56190;43.562;5.036;2022-09-14T06:36:24;2.85;;;1.90;;
69087;SDS011;56190;43.562;5.036;2022-09-14T06:38:50;4.55;;;2.30;;
69087;SDS011;56190;43.562;5.036;2022-09-14T06:41:16;2.03;;;1.83;;
69087;SDS011;56190;43.562;5.036;2022-09-14T06:43:42;4.00;;;2.65;;
69087;SDS011;56190;43.562;5.036;2022-09-14T06:48:41;3.63;;;2.10;;
69087;SDS011;56190;43.562;5.036;2022-09-14T06:53:38;3.30;;;2.13;;
69087;SDS011;56190;43.562;5.036;2022-09-14T06:56:03;3.55;;;1.98;;
69087;SDS011;56190;43.562;5.036;2022-09-14T06:58:29;2.92;;;1.85;;
69087;SDS011;56190;43.562;5.036;2022-09-14T07:00:54;2.50;;;2.08;;
69087;SDS011;56190;43.562;5.036;2022-09-14T07:03:19;4.47;;;2.33;;
69087;SDS011;56190;43.562;5.036;2022-09-14T07:05:44;3.22;;;1.90;;
69087;SDS011;56190;43.562;5.036;2022-09-14T07:08:10;4.00;;;1.85;;
69087;SDS011;56190;43.562;5.036;2022-09-14T07:10:35;3.75;;;2.05;;
69087;SDS011;56190;43.562;5.036;2022-09-14T07:13:00;4.72;;;2.00;;
69087;SDS011;56190;43.562;5.036;2022-09-14T07:15:25;5.45;;;2.20;;
69087;SDS011;56190;43.562;5.036;2022-09-14T07:17:51;2.95;;;1.77;;
69087;SDS011;56190;43.562;5.036;2022-09-14T07:20:16;3.85;;;1.77;;
69087;SDS011;56190;43.562;5.036;2022-09-14T07:22:42;5.75;;;2.28;;
69087;SDS011;56190;43.562;5.036;2022-09-14T07:25:07;3.00;;;1.92;;
69087;SDS011;56190;43.562;5.036;2022-09-14T07:27:33;2.80;;;2.03;;
69087;SDS011;56190;43.562;5.036;2022-09-14T07:29:58;3.47;;;1.90;;
69087;SDS011;56190;43.562;5.036;2022-09-14T07:32:24;1.90;;;1.63;;
69087;SDS011;56190;43.562;5.036;2022-09-14T07:34:49;4.75;;;2.25;;
69087;SDS011;56190;43.562;5.036;2022-09-14T07:37:14;2.78;;;2.08;;
69087;SDS011;56190;43.562;5.036;2022-09-14T07:39:40;2.03;;;1.70;;
69087;SDS011;56190;43.562;5.036;2022-09-14T07:42:05;3.90;;;1.85;;
69087;SDS011;56190;43.562;5.036;2022-09-14T07:44:30;2.47;;;1.52;;
69087;SDS011;56190;43.562;5.036;2022-09-14T07:46:55;1.90;;;1.70;;
69087;SDS011;56190;43.562;5.036;2022-09-14T07:49:21;4.95;;;2.15;;
69087;SDS011;56190;43.562;5.036;2022-09-14T07:51:46;9.30;;;2.35;;
69087;SDS011;56190;43.562;5.036;2022-09-14T07:54:13;8.45;;;2.55;;
69087;SDS011;56190;43.562;5.036;2022-09-14T07:56:39;8.15;;;2.08;;
69087;SDS011;56190;43.562;5.036;2022-09-14T07:59:04;5.03;;;2.05;;
69087;SDS011;56190;43.562;5.036;2022-09-14T08:01:30;3.17;;;1.52;;
69087;SDS011;56190;43.562;5.036;2022-09-14T08:03:55;3.13;;;1.58;;
69087;SDS011;56190;43.562;5.036;2022-09-14T08:06:22;1.67;;;1.40;;
69087;SDS011;56190;43.562;5.036;2022-09-14T08:08:49;2.70;;;1.70;;
69087;SDS011;56190;43.562;5.036;2022-09-14T08:11:25;3.30;;;1.58;;
69087;SDS011;56190;43.562;5.036;2022-09-14T08:13:51;3.15;;;1.65;;
69087;SDS011;56190;43.562;5.036;2022-09-14T08:16:17;4.63;;;1.52;;
69087;SDS011;56190;43.562;5.036;2022-09-14T08:18:43;2.67;;;1.60;;
69087;SDS011;56190;43.562;5.036;2022-09-14T08:21:10;1.85;;;1.55;;
69087;SDS011;56190;43.562;5.036;2022-09-14T08:23:35;4.20;;;1.83;;
69087;SDS011;56190;43.562;5.036;2022-09-14T08:26:05;4.28;;;1.77;;
69087;SDS011;56190;43.562;5.036;2022-09-14T08:28:30;2.88;;;1.70;;
69087;SDS011;56190;43.562;5.036;2022-09-14T08:31:00;2.80;;;1.67;;
69087;SDS011;56190;43.562;5.036;2022-09-14T08:33:25;2.60;;;1.50;;
69087;SDS011;56190;43.562;5.036;2022-09-14T08:35:51;3.17;;;1.80;;
69087;SDS011;56190;43.562;5.036;2022-09-14T08:38:16;3.08;;;1.40;;
69087;SDS011;56190;43.562;5.036;2022-09-14T08:40:44;3.00;;;1.77;;
69087;SDS011;56190;43.562;5.036;2022-09-14T08:43:11;2.55;;;1.30;;
69087;SDS011;56190;43.562;5.036;2022-09-14T08:45:37;2.00;;;1.20;;
69087;SDS011;56190;43.562;5.036;2022-09-14T08:48:03;4.35;;;1.17;;
69087;SDS011;56190;43.562;5.036;2022-09-14T08:50:29;4.40;;;1.38;;
69087;SDS011;56190;43.562;5.036;2022-09-14T08:52:54;2.90;;;1.10;;
69087;SDS011;56190;43.562;5.036;2022-09-14T08:55:28;6.10;;;1.10;;
69087;SDS011;56190;43.562;5.036;2022-09-14T08:57:55;5.57;;;1.30;;
69087;SDS011;56190;43.562;5.036;2022-09-14T09:00:23;3.83;;;1.20;;
69087;SDS011;56190;43.562;5.036;2022-09-14T09:08:00;5.80;;;1.40;;
69087;SDS011;56190;43.562;5.036;2022-09-14T09:10:28;5.47;;;1.63;;
69087;SDS011;56190;43.562;5.036;2022-09-14T09:12:55;7.45;;;2.00;;
69087;SDS011;56190;43.562;5.036;2022-09-14T09:15:31;6.47;;;2.15;;
69087;SDS011;56190;43.562;5.036;2022-09-14T09:18:00;10.10;;;1.55;;
69087;SDS011;56190;43.562;5.036;2022-09-14T09:20:37;9.68;;;1.45;;
69087;SDS011;56190;43.562;5.036;2022-09-14T09:26:09;9.90;;;2.28;;
69087;SDS011;56190;43.562;5.036;2022-09-14T09:28:25;15.82;;;3.13;;
69087;SDS011;56190;43.562;5.036;2022-09-14T09:30:51;14.70;;;2.35;;
69087;SDS011;56190;43.562;5.036;2022-09-14T09:33:20;12.90;;;2.60;;
69087;SDS011;56190;43.562;5.036;2022-09-14T09:35:45;14.23;;;2.97;;
69087;SDS011;56190;43.562;5.036;2022-09-14T09:38:14;14.25;;;2.70;;
69087;SDS011;56190;43.562;5.036;2022-09-14T09:40:41;17.73;;;2.80;;
69087;SDS011;56190;43.562;5.036;2022-09-14T09:43:13;13.82;;;2.65;;
69087;SDS011;56190;43.562;5.036;2022-09-14T09:48:10;12.80;;;2.50;;
69087;SDS011;56190;43.562;5.036;2022-09-14T09:50:35;13.02;;;2.75;;
69087;SDS011;56190;43.562;5.036;2022-09-14T09:53:00;11.88;;;2.50;;
69087;SDS011;56190;43.562;5.036;2022-09-14T09:55:36;15.15;;;2.88;;
69087;SDS011;56190;43.562;5.036;2022-09-14T10:01:01;16.55;;;2.97;;
69087;SDS011;56190;43.562;5.036;2022-09-14T10:03:28;11.35;;;2.75;;
69087;SDS011;56190;43.562;5.036;2022-09-14T10:06:27;9.98;;;2.25;;
69087;SDS011;56190;43.562;5.036;2022-09-14T10:08:45;9.88;;;2.08;;
69087;SDS011;56190;43.562;5.036;2022-09-14T10:13:55;10.45;;;2.72;;
69087;SDS011;56190;43.562;5.036;2022-09-14T10:16:20;10.38;;;2.40;;
69087;SDS011;56190;43.562;5.036;2022-09-14T10:18:46;17.33;;;2.80;;
69087;SDS011;56190;43.562;5.036;2022-09-14T10:21:13;16.67;;;3.00;;
69087;SDS011;56190;43.562;5.036;2022-09-14T10:23:39;16.75;;;3.20;;
69087;SDS011;56190;43.562;5.036;2022-09-14T10:28:36;13.68;;;2.90;;
69087;SDS011;56190;43.562;5.036;2022-09-14T10:31:07;13.13;;;2.17;;
69087;SDS011;56190;43.562;5.036;2022-09-14T10:33:36;17.10;;;2.95;;
69087;SDS011;56190;43.562;5.036;2022-09-14T10:39:13;15.13;;;2.92;;
69087;SDS011;56190;43.562;5.036;2022-09-14T10:46:50;12.68;;;2.45;;
69087;SDS011;56190;43.562;5.036;2022-09-14T10:57:24;12.07;;;2.67;;
69087;SDS011;56190;43.562;5.036;2022-09-14T11:00:07;13.13;;;2.60;;
69087;SDS011;56190;43.562;5.036;2022-09-14T11:13:21;11.13;;;2.70;;
69087;SDS011;56190;43.562;5.036;2022-09-14T11:16:25;8.52;;;3.05;;
69087;SDS011;56190;43.562;5.036;2022-09-14T11:21:23;8.02;;;2.47;;
69087;SDS011;56190;43.562;5.036;2022-09-14T11:23:57;13.93;;;2.30;;
69087;SDS011;56190;43.562;5.036;2022-09-14T11:26:35;9.57;;;2.33;;
69087;SDS011;56190;43.562;5.036;2022-09-14T11:31:51;6.47;;;1.80;;
69087;SDS011;56190;43.562;5.036;2022-09-14T11:34:25;6.22;;;2.17;;
69087;SDS011;56190;43.562;5.036;2022-09-14T11:36:52;10.27;;;2.50;;
69087;SDS011;56190;43.562;5.036;2022-09-14T11:39:20;9.05;;;2.08;;
69087;SDS011;56190;43.562;5.036;2022-09-14T11:42:03;6.70;;;2.10;;
69087;SDS011;56190;43.562;5.036;2022-09-14T11:44:32;9.45;;;2.72;;
69087;SDS011;56190;43.562;5.036;2022-09-14T11:47:01;9.30;;;2.47;;
69087;SDS011;56190;43.562;5.036;2022-09-14T11:49:29;7.05;;;2.33;;
69087;SDS011;56190;43.562;5.036;2022-09-14T11:52:08;8.98;;;1.98;;
69087;SDS011;56190;43.562;5.036;2022-09-14T11:54:38;7.95;;;2.00;;
69087;SDS011;56190;43.562;5.036;2022-09-14T11:57:03;6.15;;;1.80;;
69087;SDS011;56190;43.562;5.036;2022-09-14T12:00:41;8.82;;;2.13;;
69087;SDS011;56190;43.562;5.036;2022-09-14T12:10:23;7.30;;;2.80;;
69087;SDS011;56190;43.562;5.036;2022-09-14T12:12:52;13.05;;;2.50;;
69087;SDS011;56190;43.562;5.036;2022-09-14T12:15:30;8.50;;;2.20;;
69087;SDS011;56190;43.562;5.036;2022-09-14T12:28:37;10.75;;;2.95;;
69087;SDS011;56190;43.562;5.036;2022-09-14T12:41:09;11.43;;;2.65;;
69087;SDS011;56190;43.562;5.036;2022-09-14T12:51:58;14.48;;;2.95;;
69087;SDS011;56190;43.562;5.036;2022-09-14T12:56:26;8.07;;;2.30;;
69087;SDS011;56190;43.562;5.036;2022-09-14T13:04:03;10.70;;;2.28;;
69087;SDS011;56190;43.562;5.036;2022-09-14T13:06:33;9.60;;;2.45;;
69087;SDS011;56190;43.562;5.036;2022-09-14T13:08:59;11.52;;;2.38;;
69087;SDS011;56190;43.562;5.036;2022-09-14T13:11:30;11.98;;;2.70;;
69087;SDS011;56190;43.562;5.036;2022-09-14T13:13:56;9.80;;;2.13;;
69087;SDS011;56190;43.562;5.036;2022-09-14T13:16:29;10.43;;;1.83;;
69087;SDS011;56190;43.562;5.036;2022-09-14T13:18:58;9.50;;;2.30;;
69087;SDS011;56190;43.562;5.036;2022-09-14T13:21:24;8.73;;;2.28;;
69087;SDS011;56190;43.562;5.036;2022-09-14T13:23:49;12.10;;;2.38;;
69087;SDS011;56190;43.562;5.036;2022-09-14T13:28:50;9.45;;;2.25;;
69087;SDS011;56190;43.562;5.036;2022-09-14T13:31:17;10.15;;;2.35;;
69087;SDS011;56190;43.562;5.036;2022-09-14T13:33:49;8.32;;;2.40;;
69087;SDS011;56190;43.562;5.036;2022-09-14T13:36:16;12.18;;;2.33;;
69087;SDS011;56190;43.562;5.036;2022-09-14T13:38:42;12.35;;;2.38;;
69087;SDS011;56190;43.562;5.036;2022-09-14T13:41:09;10.65;;;2.05;;
69087;SDS011;56190;43.562;5.036;2022-09-14T13:43:35;10.85;;;2.30;;
69087;SDS011;56190;43.562;5.036;2022-09-14T13:46:01;12.38;;;2.58;;
69087;SDS011;56190;43.562;5.036;2022-09-14T13:48:26;8.93;;;2.60;;
69087;SDS011;56190;43.562;5.036;2022-09-14T13:50:51;8.15;;;2.40;;
69087;SDS011;56190;43.562;5.036;2022-09-14T13:56:18;9.90;;;2.53;;
69087;SDS011;56190;43.562;5.036;2022-09-14T13:58:44;9.88;;;2.80;;
69087;SDS011;56190;43.562;5.036;2022-09-14T14:01:09;5.90;;;2.22;;
69087;SDS011;56190;43.562;5.036;2022-09-14T14:03:45;8.98;;;1.95;;
69087;SDS011;56190;43.562;5.036;2022-09-14T14:06:19;9.20;;;1.88;;
69087;SDS011;56190;43.562;5.036;2022-09-14T14:08:50;11.73;;;2.22;;
69087;SDS011;56190;43.562;5.036;2022-09-14T14:11:23;10.25;;;2.35;;
69087;SDS011;56190;43.562;5.036;2022-09-14T14:13:49;9.98;;;2.25;;
69087;SDS011;56190;43.562;5.036;2022-09-14T14:16:22;8.63;;;2.60;;
69087;SDS011;56190;43.562;5.036;2022-09-14T14:18:49;7.45;;;2.25;;
69087;SDS011;56190;43.562;5.036;2022-09-14T14:23:46;9.75;;;2.03;;
69087;SDS011;56190;43.562;5.036;2022-09-14T14:26:16;8.65;;;2.05;;
69087;SDS011;56190;43.562;5.036;2022-09-14T14:28:43;8.48;;;2.00;;
69087;SDS011;56190;43.562;5.036;2022-09-14T14:31:15;9.38;;;2.80;;
69087;SDS011;56190;43.562;5.036;2022-09-14T14:33:43;12.25;;;2.72;;
69087;SDS011;56190;43.562;5.036;2022-09-14T14:36:08;10.98;;;2.28;;
69087;SDS011;56190;43.562;5.036;2022-09-14T14:38:34;10.73;;;2.58;;
69087;SDS011;56190;43.562;5.036;2022-09-14T14:41:00;15.48;;;2.20;;
69087;SDS011;56190;43.562;5.036;2022-09-14T14:43:26;7.20;;;2.10;;
69087;SDS011;56190;43.562;5.036;2022-09-14T14:45:53;9.55;;;2.38;;
69087;SDS011;56190;43.562;5.036;2022-09-14T14:48:19;10.13;;;2.60;;
69087;SDS011;56190;43.562;5.036;2022-09-14T14:50:44;9.77;;;2.22;;
69087;SDS011;56190;43.562;5.036;2022-09-14T14:53:10;9.68;;;3.15;;
69087;SDS011;56190;43.562;5.036;2022-09-14T14:55:35;10.68;;;2.85;;
69087;SDS011;56190;43.562;5.036;2022-09-14T14:58:03;8.85;;;2.30;;
69087;SDS011;56190;43.562;5.036;2022-09-14T15:00:29;9.75;;;2.45;;
69087;SDS011;56190;43.562;5.036;2022-09-14T15:02:56;10.40;;;2.28;;
69087;SDS011;56190;43.562;5.036;2022-09-14T15:05:21;9.30;;;2.58;;
69087;SDS011;56190;43.562;5.036;2022-09-14T15:07:46;9.93;;;2.30;;
69087;SDS011;56190;43.562;5.036;2022-09-14T15:10:14;10.38;;;2.50;;
69087;SDS011;56190;43.562;5.036;2022-09-14T15:12:40;8.60;;;2.55;;
69087;SDS011;56190;43.562;5.036;2022-09-14T15:15:05;9.15;;;1.77;;
69087;SDS011;56190;43.562;5.036;2022-09-14T15:17:31;10.23;;;2.30;;
69087;SDS011;56190;43.562;5.036;2022-09-14T15:19:56;8.60;;;2.53;;
69087;SDS011;56190;43.562;5.036;2022-09-14T15:22:21;5.95;;;2.10;;
69087;SDS011;56190;43.562;5.036;2022-09-14T15:24:47;7.03;;;2.30;;
69087;SDS011;56190;43.562;5.036;2022-09-14T15:27:12;9.23;;;1.90;;
69087;SDS011;56190;43.562;5.036;2022-09-14T15:29:37;6.22;;;2.00;;
69087;SDS011;56190;43.562;5.036;2022-09-14T15:32:03;9.63;;;2.00;;
69087;SDS011;56190;43.562;5.036;2022-09-14T15:34:28;8.90;;;2.00;;
69087;SDS011;56190;43.562;5.036;2022-09-14T15:36:53;8.82;;;2.33;;
69087;SDS011;56190;43.562;5.036;2022-09-14T15:39:25;7.40;;;2.30;;
69087;SDS011;56190;43.562;5.036;2022-09-14T15:44:16;9.82;;;2.58;;
69087;SDS011;56190;43.562;5.036;2022-09-14T15:46:42;9.25;;;2.10;;
69087;SDS011;56190;43.562;5.036;2022-09-14T15:49:11;6.80;;;2.08;;
69087;SDS011;56190;43.562;5.036;2022-09-14T15:51:37;14.40;;;2.42;;
69087;SDS011;56190;43.562;5.036;2022-09-14T15:54:02;7.18;;;2.20;;
69087;SDS011;56190;43.562;5.036;2022-09-14T15:56:28;7.85;;;2.42;;
69087;SDS011;56190;43.562;5.036;2022-09-14T15:58:56;7.55;;;1.90;;
69087;SDS011;56190;43.562;5.036;2022-09-14T16:01:21;8.85;;;2.03;;
69087;SDS011;56190;43.562;5.036;2022-09-14T16:03:47;8.30;;;2.25;;
69087;SDS011;56190;43.562;5.036;2022-09-14T16:06:12;7.40;;;1.88;;
69087;SDS011;56190;43.562;5.036;2022-09-14T16:08:38;6.93;;;2.25;;
69087;SDS011;56190;43.562;5.036;2022-09-14T16:11:04;6.70;;;2.05;;
69087;SDS011;56190;43.562;5.036;2022-09-14T16:13:30;7.20;;;2.15;;
69087;SDS011;56190;43.562;5.036;2022-09-14T16:16:06;13.27;;;2.67;;
69087;SDS011;56190;43.562;5.036;2022-09-14T16:18:32;8.80;;;2.45;;
69087;SDS011;56190;43.562;5.036;2022-09-14T16:21:17;5.78;;;1.63;;
69087;SDS011;56190;43.562;5.036;2022-09-14T16:23:44;9.20;;;1.95;;
69087;SDS011;56190;43.562;5.036;2022-09-14T16:26:10;9.43;;;2.10;;
69087;SDS011;56190;43.562;5.036;2022-09-14T16:28:36;5.80;;;2.08;;
69087;SDS011;56190;43.562;5.036;2022-09-14T16:31:05;7.40;;;1.70;;
69087;SDS011;56190;43.562;5.036;2022-09-14T16:33:34;7.03;;;2.20;;
69087;SDS011;56190;43.562;5.036;2022-09-14T16:36:03;8.32;;;2.20;;
69087;SDS011;56190;43.562;5.036;2022-09-14T16:38:29;7.97;;;2.50;;
69087;SDS011;56190;43.562;5.036;2022-09-14T16:40:57;6.28;;;2.05;;
69087;SDS011;56190;43.562;5.036;2022-09-14T16:43:23;6.40;;;2.63;;
69087;SDS011;56190;43.562;5.036;2022-09-14T16:45:48;6.32;;;2.08;;
69087;SDS011;56190;43.562;5.036;2022-09-14T16:48:23;8.10;;;2.28;;
69087;SDS011;56190;43.562;5.036;2022-09-14T16:50:51;8.35;;;2.35;;
69087;SDS011;56190;43.562;5.036;2022-09-14T16:53:16;8.75;;;2.45;;
69087;SDS011;56190;43.562;5.036;2022-09-14T16:55:41;7.30;;;1.92;;
69087;SDS011;56190;43.562;5.036;2022-09-14T16:58:07;8.90;;;2.38;;
69087;SDS011;56190;43.562;5.036;2022-09-14T17:00:33;8.95;;;2.55;;
69087;SDS011;56190;43.562;5.036;2022-09-14T17:02:58;11.38;;;2.63;;
69087;SDS011;56190;43.562;5.036;2022-09-14T17:05:23;7.97;;;2.30;;
69087;SDS011;56190;43.562;5.036;2022-09-14T17:07:49;12.50;;;2.47;;
69087;SDS011;56190;43.562;5.036;2022-09-14T17:10:14;11.88;;;2.08;;
69087;SDS011;56190;43.562;5.036;2022-09-14T17:12:39;9.45;;;2.08;;
69087;SDS011;56190;43.562;5.036;2022-09-14T17:15:05;8.30;;;2.17;;
69087;SDS011;56190;43.562;5.036;2022-09-14T17:17:30;12.25;;;2.30;;
69087;SDS011;56190;43.562;5.036;2022-09-14T17:19:55;6.65;;;2.47;;
69087;SDS011;56190;43.562;5.036;2022-09-14T17:22:21;6.65;;;2.22;;
69087;SDS011;56190;43.562;5.036;2022-09-14T17:24:46;7.78;;;2.45;;
69087;SDS011;56190;43.562;5.036;2022-09-14T17:27:11;6.10;;;2.30;;
69087;SDS011;56190;43.562;5.036;2022-09-14T17:29:36;9.10;;;2.20;;